USCGC Polar Star — NBTM — position and weather

sailwx.info

Track history (hours):
 
Tides and Currents Weather Stations Pressure Air Temp Water Temp Dewpoint Dewpoint Depression Visibility Wind Speed Wind Dir Waves Ship Positions

Oceanographic research ship USCGC Polar Star (USA)

Detailed information on ship capabilities available from University of Delaware's Ocean Information Center and ARCUS's ALIAS (Arctic Logistics Information and Support) project.

Last reported at 2015-Dec-30 12:18 UTC. Time now 2016-Feb-09 07:23 UTC.
Position S 44°43' E 148°15'.
Warning: this ship's position is 40 days out of date.

Type: Military. MMSI: 367255000.

Date/timePositionNaut miles runAvg speedWind from/ knotsBaromVisibWave heightAir tempDewpointWater temp
2015-Dec-30 12:18S 44°43' E 148°15'810.1
2015-Dec-30 11:31S 44°36' E 148°11'5413.2
2015-Dec-30 07:27S 43°46' E 147°44'1314.7
2015-Dec-30 06:33S 43°33' E 147°39'1515.1
2015-Dec-30 05:33S 43°19' E 147°33'1616.1
2015-Dec-30 04:33S 43°04' E 147°24'9 8.8
2015-Dec-30 03:33S 42°55' E 147°23'3 3.1
2015-Dec-30 02:33S 42°53' E 147°20'0 0.0
2015-Dec-30 01:33S 42°53' E 147°20'0 0.0
2015-Dec-30 00:30S 42°53' E 147°20'0 0.0
2015-Dec-29 23:32S 42°53' E 147°20'0 0.0
2015-Dec-29 22:32S 42°53' E 147°20'0 0.0
2015-Dec-29 21:33S 42°53' E 147°20'0 0.0
2015-Dec-29 20:33S 42°53' E 147°20'0 0.0
2015-Dec-29 19:33S 42°53' E 147°20'0 0.0
2015-Dec-29 18:33S 42°53' E 147°20'0 0.0
2015-Dec-29 17:30S 42°53' E 147°20'0 0.0
2015-Dec-29 16:33S 42°53' E 147°20'0 0.0
2015-Dec-29 15:32S 42°53' E 147°20'0 0.0
2015-Dec-29 14:33S 42°53' E 147°20'0 0.0
2015-Dec-29 13:33S 42°53' E 147°20'0 0.0
2015-Dec-29 12:33S 42°53' E 147°20'0 0.0
2015-Dec-29 11:33S 42°53' E 147°20'0 0.0
2015-Dec-29 10:33S 42°53' E 147°20'0 0.0
2015-Dec-29 09:33S 42°53' E 147°20'0 0.0
2015-Dec-29 08:33S 42°53' E 147°20'0 0.0
2015-Dec-29 07:33S 42°53' E 147°20'0 0.0
2015-Dec-29 06:33S 42°53' E 147°20'0 0.0
2015-Dec-29 05:33S 42°53' E 147°20'0 0.0
2015-Dec-29 04:33S 42°53' E 147°20'0 0.0
2015-Dec-29 03:33S 42°53' E 147°20'0 0.0
2015-Dec-29 02:33S 42°53' E 147°20'0 0.0
2015-Dec-29 01:33S 42°53' E 147°20'0 0.0
2015-Dec-29 00:33S 42°53' E 147°20'0 0.0
2015-Dec-28 23:34S 42°53' E 147°20'  
2015-Dec-22 06:24S 42°53' E 147°21'0 0.1
2015-Dec-22 05:33S 42°52' E 147°21'5 4.6
2015-Dec-22 04:33S 42°57' E 147°22'1 0.6
2015-Dec-22 03:33S 42°56' E 147°23'0 0.0
2015-Dec-22 02:32S 42°56' E 147°23'0 0.0
2015-Dec-22 01:32S 42°56' E 147°23'0 0.0
2015-Dec-22 00:31S 42°56' E 147°23'0 0.0
2015-Dec-21 23:31S 42°56' E 147°23'0 0.0
2015-Dec-21 22:33S 42°56' E 147°23'0 0.0
2015-Dec-21 21:31S 42°56' E 147°23'0 0.0
2015-Dec-21 20:31S 42°56' E 147°23'0 0.0
2015-Dec-21 19:31S 42°56' E 147°23'0 0.0
2015-Dec-21 18:31S 42°56' E 147°23'0 0.0
2015-Dec-21 17:31S 42°56' E 147°23'0 0.0
2015-Dec-21 16:31S 42°56' E 147°23'0 0.0
2015-Dec-21 15:31S 42°56' E 147°23'0 0.0
2015-Dec-21 14:31S 42°56' E 147°23'0 0.0
2015-Dec-21 13:31S 42°56' E 147°23'0 0.0
2015-Dec-21 12:31S 42°56' E 147°23'0 0.0
2015-Dec-21 11:31S 42°56' E 147°23'0 0.0
2015-Dec-21 10:31S 42°56' E 147°23'0 0.0
2015-Dec-21 09:31S 42°56' E 147°23'0 0.0
2015-Dec-21 08:31S 42°56' E 147°23'0 0.0
2015-Dec-21 07:31S 42°56' E 147°23'0 0.0
2015-Dec-21 06:31S 42°56' E 147°23'0 0.0
2015-Dec-21 05:28S 42°56' E 147°23'0 0.0
2015-Dec-21 04:31S 42°56' E 147°23'0 0.0
2015-Dec-21 03:31S 42°56' E 147°23'0 0.0
2015-Dec-21 02:31S 42°56' E 147°23'0 0.0
2015-Dec-21 01:31S 42°56' E 147°23'0 0.0
2015-Dec-21 00:31S 42°56' E 147°23'0 0.0
2015-Dec-20 23:32S 42°56' E 147°23'0 0.0
2015-Dec-20 22:31S 42°56' E 147°23'0 0.0
2015-Dec-20 21:31S 42°56' E 147°23'0 0.0
2015-Dec-20 20:31S 42°56' E 147°23'0 0.0
2015-Dec-20 19:31S 42°56' E 147°23'0 0.0
2015-Dec-20 18:31S 42°56' E 147°23'0 0.0
2015-Dec-20 17:31S 42°56' E 147°23'0 0.1
2015-Dec-20 16:31S 42°56' E 147°23'0 0.0
2015-Dec-20 15:32S 42°56' E 147°23'0 0.1
2015-Dec-20 14:32S 42°56' E 147°23'0 0.0
2015-Dec-20 13:31S 42°56' E 147°23'0 0.0
2015-Dec-20 12:31S 42°56' E 147°23'  
Track history (hours):
 
Tides and Currents Weather Stations Pressure Air Temp Water Temp Dewpoint Dewpoint Depression Visibility Wind Speed Wind Dir Waves Ship Positions

Oceanographic research ship USCGC Polar Star (USA)

Detailed information on ship capabilities available from University of Delaware's Ocean Information Center and ARCUS's ALIAS (Arctic Logistics Information and Support) project.

Last reported at 2015-Dec-30 12:18 UTC. Time now 2016-Feb-09 07:23 UTC.
Position S 44°43' E 148°15'.
Warning: this ship's position is 40 days out of date.

Type: Military. MMSI: 367255000.

Date/timePositionNaut miles runAvg speedWind from/ knotsBaromVisibWave heightAir tempDewpointWater temp
2015-Dec-30 12:18S 44°43' E 148°15'810.1
2015-Dec-30 11:31S 44°36' E 148°11'5413.2
2015-Dec-30 07:27S 43°46' E 147°44'1314.7
2015-Dec-30 06:33S 43°33' E 147°39'1515.1
2015-Dec-30 05:33S 43°19' E 147°33'1616.1
2015-Dec-30 04:33S 43°04' E 147°24'9 8.8
2015-Dec-30 03:33S 42°55' E 147°23'3 3.1
2015-Dec-30 02:33S 42°53' E 147°20'0 0.0
2015-Dec-30 01:33S 42°53' E 147°20'0 0.0
2015-Dec-30 00:30S 42°53' E 147°20'0 0.0
2015-Dec-29 23:32S 42°53' E 147°20'0 0.0
2015-Dec-29 22:32S 42°53' E 147°20'0 0.0
2015-Dec-29 21:33S 42°53' E 147°20'0 0.0
2015-Dec-29 20:33S 42°53' E 147°20'0 0.0
2015-Dec-29 19:33S 42°53' E 147°20'0 0.0
2015-Dec-29 18:33S 42°53' E 147°20'0 0.0
2015-Dec-29 17:30S 42°53' E 147°20'0 0.0
2015-Dec-29 16:33S 42°53' E 147°20'0 0.0
2015-Dec-29 15:32S 42°53' E 147°20'0 0.0
2015-Dec-29 14:33S 42°53' E 147°20'0 0.0
2015-Dec-29 13:33S 42°53' E 147°20'0 0.0
2015-Dec-29 12:33S 42°53' E 147°20'0 0.0
2015-Dec-29 11:33S 42°53' E 147°20'0 0.0
2015-Dec-29 10:33S 42°53' E 147°20'0 0.0
2015-Dec-29 09:33S 42°53' E 147°20'0 0.0
2015-Dec-29 08:33S 42°53' E 147°20'0 0.0
2015-Dec-29 07:33S 42°53' E 147°20'0 0.0
2015-Dec-29 06:33S 42°53' E 147°20'0 0.0
2015-Dec-29 05:33S 42°53' E 147°20'0 0.0
2015-Dec-29 04:33S 42°53' E 147°20'0 0.0
2015-Dec-29 03:33S 42°53' E 147°20'0 0.0
2015-Dec-29 02:33S 42°53' E 147°20'0 0.0
2015-Dec-29 01:33S 42°53' E 147°20'0 0.0
2015-Dec-29 00:33S 42°53' E 147°20'0 0.0
2015-Dec-28 23:34S 42°53' E 147°20'  
2015-Dec-22 06:24S 42°53' E 147°21'0 0.1
2015-Dec-22 05:33S 42°52' E 147°21'5 4.6
2015-Dec-22 04:33S 42°57' E 147°22'1 0.6
2015-Dec-22 03:33S 42°56' E 147°23'0 0.0
2015-Dec-22 02:32S 42°56' E 147°23'0 0.0
2015-Dec-22 01:32S 42°56' E 147°23'0 0.0
2015-Dec-22 00:31S 42°56' E 147°23'0 0.0
2015-Dec-21 23:31S 42°56' E 147°23'0 0.0
2015-Dec-21 22:33S 42°56' E 147°23'0 0.0
2015-Dec-21 21:31S 42°56' E 147°23'0 0.0
2015-Dec-21 20:31S 42°56' E 147°23'0 0.0
2015-Dec-21 19:31S 42°56' E 147°23'0 0.0
2015-Dec-21 18:31S 42°56' E 147°23'0 0.0
2015-Dec-21 17:31S 42°56' E 147°23'0 0.0
2015-Dec-21 16:31S 42°56' E 147°23'0 0.0
2015-Dec-21 15:31S 42°56' E 147°23'0 0.0
2015-Dec-21 14:31S 42°56' E 147°23'0 0.0
2015-Dec-21 13:31S 42°56' E 147°23'0 0.0
2015-Dec-21 12:31S 42°56' E 147°23'0 0.0
2015-Dec-21 11:31S 42°56' E 147°23'0 0.0
2015-Dec-21 10:31S 42°56' E 147°23'0 0.0
2015-Dec-21 09:31S 42°56' E 147°23'0 0.0
2015-Dec-21 08:31S 42°56' E 147°23'0 0.0
2015-Dec-21 07:31S 42°56' E 147°23'0 0.0
2015-Dec-21 06:31S 42°56' E 147°23'0 0.0
2015-Dec-21 05:28S 42°56' E 147°23'0 0.0
2015-Dec-21 04:31S 42°56' E 147°23'0 0.0
2015-Dec-21 03:31S 42°56' E 147°23'0 0.0
2015-Dec-21 02:31S 42°56' E 147°23'0 0.0
2015-Dec-21 01:31S 42°56' E 147°23'0 0.0
2015-Dec-21 00:31S 42°56' E 147°23'0 0.0
2015-Dec-20 23:32S 42°56' E 147°23'0 0.0
2015-Dec-20 22:31S 42°56' E 147°23'0 0.0
2015-Dec-20 21:31S 42°56' E 147°23'0 0.0
2015-Dec-20 20:31S 42°56' E 147°23'0 0.0
2015-Dec-20 19:31S 42°56' E 147°23'0 0.0
2015-Dec-20 18:31S 42°56' E 147°23'0 0.0
2015-Dec-20 17:31S 42°56' E 147°23'0 0.1
2015-Dec-20 16:31S 42°56' E 147°23'0 0.0
2015-Dec-20 15:32S 42°56' E 147°23'0 0.1
2015-Dec-20 14:32S 42°56' E 147°23'0 0.0
2015-Dec-20 13:31S 42°56' E 147°23'0 0.0
2015-Dec-20 12:31S 42°56' E 147°23'  

Dump ship's entire track history